sensor_id;sensor_type;location;lat;lon;timestamp;temperature;humidity
52963;DHT22;38827;53.024;6.596;2023-02-15T00:02:33;2.10;79.20
52963;DHT22;38827;53.024;6.596;2023-02-15T00:05:06;2.10;79.20
52963;DHT22;38827;53.024;6.596;2023-02-15T00:08:04;2.00;79.40
52963;DHT22;38827;53.024;6.596;2023-02-15T00:14:24;2.10;79.40
52963;DHT22;38827;53.024;6.596;2023-02-15T00:16:51;2.00;79.20
52963;DHT22;38827;53.024;6.596;2023-02-15T00:19:29;2.00;79.20
52963;DHT22;38827;53.024;6.596;2023-02-15T00:26:16;1.90;79.10
52963;DHT22;38827;53.024;6.596;2023-02-15T00:29:03;1.90;79.00
52963;DHT22;38827;53.024;6.596;2023-02-15T00:31:47;1.90;79.00
52963;DHT22;38827;53.024;6.596;2023-02-15T00:34:38;1.80;79.00
52963;DHT22;38827;53.024;6.596;2023-02-15T00:37:19;1.80;78.70
52963;DHT22;38827;53.024;6.596;2023-02-15T00:48:25;1.60;78.80
52963;DHT22;38827;53.024;6.596;2023-02-15T00:51:02;1.50;78.90
52963;DHT22;38827;53.024;6.596;2023-02-15T00:53:29;1.50;79.20
52963;DHT22;38827;53.024;6.596;2023-02-15T00:56:02;1.50;79.40
52963;DHT22;38827;53.024;6.596;2023-02-15T00:58:46;1.50;79.50
52963;DHT22;38827;53.024;6.596;2023-02-15T01:01:24;1.50;79.60
52963;DHT22;38827;53.024;6.596;2023-02-15T01:03:54;1.50;79.70
52963;DHT22;38827;53.024;6.596;2023-02-15T01:06:38;1.40;79.80
52963;DHT22;38827;53.024;6.596;2023-02-15T01:09:07;1.40;79.90
52963;DHT22;38827;53.024;6.596;2023-02-15T01:14:01;1.40;79.90
52963;DHT22;38827;53.024;6.596;2023-02-15T01:17:18;1.40;79.80
52963;DHT22;38827;53.024;6.596;2023-02-15T01:19:49;1.40;79.70
52963;DHT22;38827;53.024;6.596;2023-02-15T01:22:17;1.40;79.70
52963;DHT22;38827;53.024;6.596;2023-02-15T01:24:55;1.40;79.50
52963;DHT22;38827;53.024;6.596;2023-02-15T01:27:30;1.40;79.50
52963;DHT22;38827;53.024;6.596;2023-02-15T01:30:15;1.30;79.50
52963;DHT22;38827;53.024;6.596;2023-02-15T01:32:44;1.30;79.50
52963;DHT22;38827;53.024;6.596;2023-02-15T01:35:10;1.30;79.50
52963;DHT22;38827;53.024;6.596;2023-02-15T01:38:10;1.30;79.50
52963;DHT22;38827;53.024;6.596;2023-02-15T01:41:00;1.20;79.50
52963;DHT22;38827;53.024;6.596;2023-02-15T01:47:45;1.20;79.90
52963;DHT22;38827;53.024;6.596;2023-02-15T01:53:54;1.30;79.70
52963;DHT22;38827;53.024;6.596;2023-02-15T01:57:22;1.20;79.70
52963;DHT22;38827;53.024;6.596;2023-02-15T02:00:11;1.30;79.70
52963;DHT22;38827;53.024;6.596;2023-02-15T02:02:55;1.30;79.60
52963;DHT22;38827;53.024;6.596;2023-02-15T02:05:22;1.30;79.40
52963;DHT22;38827;53.024;6.596;2023-02-15T02:07:51;1.30;79.30
52963;DHT22;38827;53.024;6.596;2023-02-15T02:13:18;1.30;79.20
52963;DHT22;38827;53.024;6.596;2023-02-15T02:42:56;1.00;79.20
52963;DHT22;38827;53.024;6.596;2023-02-15T02:46:25;0.90;79.50
52963;DHT22;38827;53.024;6.596;2023-02-15T02:48:52;1.00;79.50
52963;DHT22;38827;53.024;6.596;2023-02-15T02:51:18;0.90;79.50
52963;DHT22;38827;53.024;6.596;2023-02-15T03:06:50;0.90;80.00
52963;DHT22;38827;53.024;6.596;2023-02-15T03:19:15;0.80;80.10
52963;DHT22;38827;53.024;6.596;2023-02-15T03:25:39;0.80;79.80
52963;DHT22;38827;53.024;6.596;2023-02-15T03:28:55;0.80;79.90
52963;DHT22;38827;53.024;6.596;2023-02-15T03:31:45;0.70;79.80
52963;DHT22;38827;53.024;6.596;2023-02-15T03:35:14;0.80;79.70
52963;DHT22;38827;53.024;6.596;2023-02-15T03:38:08;0.70;79.70
52963;DHT22;38827;53.024;6.596;2023-02-15T03:41:10;0.70;79.80
52963;DHT22;38827;53.024;6.596;2023-02-15T03:43:59;0.70;79.80
52963;DHT22;38827;53.024;6.596;2023-02-15T03:49:43;0.70;79.80
52963;DHT22;38827;53.024;6.596;2023-02-15T03:52:25;0.60;79.90
52963;DHT22;38827;53.024;6.596;2023-02-15T03:55:30;0.60;80.10
52963;DHT22;38827;53.024;6.596;2023-02-15T03:58:18;0.60;80.00
52963;DHT22;38827;53.024;6.596;2023-02-15T04:01:54;0.60;80.10
52963;DHT22;38827;53.024;6.596;2023-02-15T04:05:21;0.50;80.30
52963;DHT22;38827;53.024;6.596;2023-02-15T04:07:47;0.50;80.20
52963;DHT22;38827;53.024;6.596;2023-02-15T04:10:28;0.50;80.20
52963;DHT22;38827;53.024;6.596;2023-02-15T04:13:32;0.50;80.10
52963;DHT22;38827;53.024;6.596;2023-02-15T04:16:10;0.40;80.20
52963;DHT22;38827;53.024;6.596;2023-02-15T04:19:11;0.40;80.30
52963;DHT22;38827;53.024;6.596;2023-02-15T04:25:13;0.30;80.50
52963;DHT22;38827;53.024;6.596;2023-02-15T04:27:52;0.40;80.40
52963;DHT22;38827;53.024;6.596;2023-02-15T04:30:21;0.40;80.70
52963;DHT22;38827;53.024;6.596;2023-02-15T04:32:47;0.40;80.70
52963;DHT22;38827;53.024;6.596;2023-02-15T04:35:19;0.40;80.80
52963;DHT22;38827;53.024;6.596;2023-02-15T04:38:07;0.40;81.00
52963;DHT22;38827;53.024;6.596;2023-02-15T04:40:42;0.40;81.10
52963;DHT22;38827;53.024;6.596;2023-02-15T04:43:11;0.40;81.30
52963;DHT22;38827;53.024;6.596;2023-02-15T04:45:39;0.50;81.40
52963;DHT22;38827;53.024;6.596;2023-02-15T04:48:05;0.50;81.20
52963;DHT22;38827;53.024;6.596;2023-02-15T04:50:44;0.50;81.30
52963;DHT22;38827;53.024;6.596;2023-02-15T04:53:25;0.50;81.20
52963;DHT22;38827;53.024;6.596;2023-02-15T04:55:51;0.50;81.20
52963;DHT22;38827;53.024;6.596;2023-02-15T04:58:16;0.50;81.20
52963;DHT22;38827;53.024;6.596;2023-02-15T05:01:00;0.50;81.10
52963;DHT22;38827;53.024;6.596;2023-02-15T05:03:45;0.50;81.00
52963;DHT22;38827;53.024;6.596;2023-02-15T05:06:19;0.50;81.10
52963;DHT22;38827;53.024;6.596;2023-02-15T05:09:16;0.40;81.30
52963;DHT22;38827;53.024;6.596;2023-02-15T05:11:50;0.40;81.20
52963;DHT22;38827;53.024;6.596;2023-02-15T05:14:15;0.40;81.40
52963;DHT22;38827;53.024;6.596;2023-02-15T05:16:59;0.50;81.40
52963;DHT22;38827;53.024;6.596;2023-02-15T05:19:27;0.50;81.40
52963;DHT22;38827;53.024;6.596;2023-02-15T05:21:53;0.50;81.40
52963;DHT22;38827;53.024;6.596;2023-02-15T05:24:40;0.60;81.40
52963;DHT22;38827;53.024;6.596;2023-02-15T05:28:12;0.60;81.50
52963;DHT22;38827;53.024;6.596;2023-02-15T05:30:58;0.60;81.70
52963;DHT22;38827;53.024;6.596;2023-02-15T05:39:59;0.70;82.10
52963;DHT22;38827;53.024;6.596;2023-02-15T05:42:32;0.70;82.20
52963;DHT22;38827;53.024;6.596;2023-02-15T05:44:58;0.80;82.40
52963;DHT22;38827;53.024;6.596;2023-02-15T05:47:43;0.90;82.60
52963;DHT22;38827;53.024;6.596;2023-02-15T05:50:43;0.90;82.70
52963;DHT22;38827;53.024;6.596;2023-02-15T06:10:34;1.10;83.30
52963;DHT22;38827;53.024;6.596;2023-02-15T06:13:03;1.10;83.50
52963;DHT22;38827;53.024;6.596;2023-02-15T06:15:39;1.20;83.40
52963;DHT22;38827;53.024;6.596;2023-02-15T06:18:17;1.20;83.50
52963;DHT22;38827;53.024;6.596;2023-02-15T06:24:44;1.20;83.80
52963;DHT22;38827;53.024;6.596;2023-02-15T06:27:28;1.20;84.00
52963;DHT22;38827;53.024;6.596;2023-02-15T06:30:15;1.20;84.20
52963;DHT22;38827;53.024;6.596;2023-02-15T06:32:50;1.20;84.10
52963;DHT22;38827;53.024;6.596;2023-02-15T06:35:15;1.30;84.40
52963;DHT22;38827;53.024;6.596;2023-02-15T06:37:53;1.30;84.40
52963;DHT22;38827;53.024;6.596;2023-02-15T06:40:25;1.30;84.40
52963;DHT22;38827;53.024;6.596;2023-02-15T06:59:17;1.20;84.70
52963;DHT22;38827;53.024;6.596;2023-02-15T07:01:54;1.30;84.80
52963;DHT22;38827;53.024;6.596;2023-02-15T07:04:37;1.30;84.90
52963;DHT22;38827;53.024;6.596;2023-02-15T07:07:43;1.40;84.90
52963;DHT22;38827;53.024;6.596;2023-02-15T07:10:20;1.40;85.20
52963;DHT22;38827;53.024;6.596;2023-02-15T07:12:49;1.40;85.00
52963;DHT22;38827;53.024;6.596;2023-02-15T07:15:17;1.50;85.10
52963;DHT22;38827;53.024;6.596;2023-02-15T07:17:57;1.50;85.20
52963;DHT22;38827;53.024;6.596;2023-02-15T07:20:37;1.60;85.30
52963;DHT22;38827;53.024;6.596;2023-02-15T07:23:14;1.70;85.30
52963;DHT22;38827;53.024;6.596;2023-02-15T07:29:08;1.90;85.40
52963;DHT22;38827;53.024;6.596;2023-02-15T07:31:36;1.90;85.40
52963;DHT22;38827;53.024;6.596;2023-02-15T07:34:06;2.00;85.30
52963;DHT22;38827;53.024;6.596;2023-02-15T07:36:38;2.30;85.50
52963;DHT22;38827;53.024;6.596;2023-02-15T07:39:34;2.80;85.20
52963;DHT22;38827;53.024;6.596;2023-02-15T07:42:00;3.20;84.40
52963;DHT22;38827;53.024;6.596;2023-02-15T07:44:29;3.70;83.40
52963;DHT22;38827;53.024;6.596;2023-02-15T07:47:03;4.30;82.20
52963;DHT22;38827;53.024;6.596;2023-02-15T07:49:36;4.70;80.50
52963;DHT22;38827;53.024;6.596;2023-02-15T07:52:02;5.20;79.20
52963;DHT22;38827;53.024;6.596;2023-02-15T07:54:40;5.60;77.90
52963;DHT22;38827;53.024;6.596;2023-02-15T07:57:18;6.10;76.10
52963;DHT22;38827;53.024;6.596;2023-02-15T07:59:47;6.40;75.10
52963;DHT22;38827;53.024;6.596;2023-02-15T08:02:12;6.60;74.80
52963;DHT22;38827;53.024;6.596;2023-02-15T08:04:38;6.90;73.90
52963;DHT22;38827;53.024;6.596;2023-02-15T08:07:07;7.20;72.80
52963;DHT22;38827;53.024;6.596;2023-02-15T08:09:45;7.50;72.10
52963;DHT22;38827;53.024;6.596;2023-02-15T08:12:10;7.70;71.00
52963;DHT22;38827;53.024;6.596;2023-02-15T08:14:42;7.90;70.10
52963;DHT22;38827;53.024;6.596;2023-02-15T08:17:16;8.20;69.20
52963;DHT22;38827;53.024;6.596;2023-02-15T08:20:09;8.40;68.20
52963;DHT22;38827;53.024;6.596;2023-02-15T08:22:47;8.60;67.50
52963;DHT22;38827;53.024;6.596;2023-02-15T08:25:13;9.00;67.10
52963;DHT22;38827;53.024;6.596;2023-02-15T08:27:50;9.40;66.20
52963;DHT22;38827;53.024;6.596;2023-02-15T08:33:56;10.30;63.90
52963;DHT22;38827;53.024;6.596;2023-02-15T08:36:31;10.60;62.90
52963;DHT22;38827;53.024;6.596;2023-02-15T08:39:18;10.60;62.20
52963;DHT22;38827;53.024;6.596;2023-02-15T08:41:56;10.60;61.90
52963;DHT22;38827;53.024;6.596;2023-02-15T08:44:34;10.50;61.50
52963;DHT22;38827;53.024;6.596;2023-02-15T08:46:59;10.50;62.50
52963;DHT22;38827;53.024;6.596;2023-02-15T08:49:40;10.60;62.40
52963;DHT22;38827;53.024;6.596;2023-02-15T08:52:06;10.70;61.60
52963;DHT22;38827;53.024;6.596;2023-02-15T08:54:32;11.00;61.50
52963;DHT22;38827;53.024;6.596;2023-02-15T08:57:07;11.60;60.40
52963;DHT22;38827;53.024;6.596;2023-02-15T09:02:43;12.40;56.70
52963;DHT22;38827;53.024;6.596;2023-02-15T09:05:09;12.50;56.50
52963;DHT22;38827;53.024;6.596;2023-02-15T09:07:44;12.80;56.40
52963;DHT22;38827;53.024;6.596;2023-02-15T09:10:19;13.30;55.00
52963;DHT22;38827;53.024;6.596;2023-02-15T09:13:14;13.80;53.80
52963;DHT22;38827;53.024;6.596;2023-02-15T09:15:40;13.80;53.80
52963;DHT22;38827;53.024;6.596;2023-02-15T09:18:31;13.70;53.40
52963;DHT22;38827;53.024;6.596;2023-02-15T09:24:15;13.10;53.90
52963;DHT22;38827;53.024;6.596;2023-02-15T09:26:43;13.00;54.90
52963;DHT22;38827;53.024;6.596;2023-02-15T09:29:19;13.20;54.70
52963;DHT22;38827;53.024;6.596;2023-02-15T09:35:47;13.80;52.70
52963;DHT22;38827;53.024;6.596;2023-02-15T09:38:31;14.50;51.70
52963;DHT22;38827;53.024;6.596;2023-02-15T09:52:46;16.30;48.50
52963;DHT22;38827;53.024;6.596;2023-02-15T10:06:38;17.50;46.90
52963;DHT22;38827;53.024;6.596;2023-02-15T10:34:19;18.30;43.80
52963;DHT22;38827;53.024;6.596;2023-02-15T10:37:17;18.30;44.20
52963;DHT22;38827;53.024;6.596;2023-02-15T10:50:22;18.50;43.60
52963;DHT22;38827;53.024;6.596;2023-02-15T10:53:21;18.60;43.20
52963;DHT22;38827;53.024;6.596;2023-02-15T10:55:59;18.60;42.90
52963;DHT22;38827;53.024;6.596;2023-02-15T10:59:03;18.60;43.10
52963;DHT22;38827;53.024;6.596;2023-02-15T11:04:40;18.40;43.50
52963;DHT22;38827;53.024;6.596;2023-02-15T11:10:35;18.30;43.60
52963;DHT22;38827;53.024;6.596;2023-02-15T11:13:08;18.30;43.30
52963;DHT22;38827;53.024;6.596;2023-02-15T11:15:54;18.20;43.50
52963;DHT22;38827;53.024;6.596;2023-02-15T11:18:43;18.50;42.80
52963;DHT22;38827;53.024;6.596;2023-02-15T11:24:24;19.00;42.00
52963;DHT22;38827;53.024;6.596;2023-02-15T11:26:59;19.40;41.20
52963;DHT22;38827;53.024;6.596;2023-02-15T11:29:54;19.50;41.70
52963;DHT22;38827;53.024;6.596;2023-02-15T11:32:35;19.90;41.10
52963;DHT22;38827;53.024;6.596;2023-02-15T11:38:14;20.30;40.50
52963;DHT22;38827;53.024;6.596;2023-02-15T11:40:53;20.30;40.00
52963;DHT22;38827;53.024;6.596;2023-02-15T11:46:26;19.50;40.10
52963;DHT22;38827;53.024;6.596;2023-02-15T11:48:52;18.60;42.00
52963;DHT22;38827;53.024;6.596;2023-02-15T11:51:30;17.70;43.50
52963;DHT22;38827;53.024;6.596;2023-02-15T11:54:11;17.10;44.10
52963;DHT22;38827;53.024;6.596;2023-02-15T11:56:37;16.40;45.30
52963;DHT22;38827;53.024;6.596;2023-02-15T11:59:09;16.00;46.40
52963;DHT22;38827;53.024;6.596;2023-02-15T12:09:33;14.70;48.30
52963;DHT22;38827;53.024;6.596;2023-02-15T12:12:20;14.50;49.40
52963;DHT22;38827;53.024;6.596;2023-02-15T12:14:52;14.30;49.90
52963;DHT22;38827;53.024;6.596;2023-02-15T12:17:21;14.10;50.10
52963;DHT22;38827;53.024;6.596;2023-02-15T12:19:47;14.00;50.80
52963;DHT22;38827;53.024;6.596;2023-02-15T12:22:36;13.90;51.00
52963;DHT22;38827;53.024;6.596;2023-02-15T12:25:03;13.80;51.50
52963;DHT22;38827;53.024;6.596;2023-02-15T12:27:33;13.70;52.20
52963;DHT22;38827;53.024;6.596;2023-02-15T12:30:15;13.70;52.30
52963;DHT22;38827;53.024;6.596;2023-02-15T12:32:51;13.80;52.90
52963;DHT22;38827;53.024;6.596;2023-02-15T12:35:27;14.00;53.10
52963;DHT22;38827;53.024;6.596;2023-02-15T12:38:05;14.40;53.10
52963;DHT22;38827;53.024;6.596;2023-02-15T12:41:03;15.00;51.90
52963;DHT22;38827;53.024;6.596;2023-02-15T12:43:37;15.70;49.70
52963;DHT22;38827;53.024;6.596;2023-02-15T12:46:24;16.10;48.40
52963;DHT22;38827;53.024;6.596;2023-02-15T12:49:06;16.50;47.90
52963;DHT22;38827;53.024;6.596;2023-02-15T12:52:05;17.00;46.20
52963;DHT22;38827;53.024;6.596;2023-02-15T12:54:42;17.90;45.10
52963;DHT22;38827;53.024;6.596;2023-02-15T13:00:01;18.80;44.60
52963;DHT22;38827;53.024;6.596;2023-02-15T13:02:41;19.00;43.60
52963;DHT22;38827;53.024;6.596;2023-02-15T13:05:21;19.20;42.60
52963;DHT22;38827;53.024;6.596;2023-02-15T13:07:56;19.20;42.50
52963;DHT22;38827;53.024;6.596;2023-02-15T13:12:50;18.50;43.30
52963;DHT22;38827;53.024;6.596;2023-02-15T13:15:36;18.20;43.70
52963;DHT22;38827;53.024;6.596;2023-02-15T13:18:04;17.90;43.70
52963;DHT22;38827;53.024;6.596;2023-02-15T13:20:31;17.40;44.50
52963;DHT22;38827;53.024;6.596;2023-02-15T13:23:03;17.00;45.10
52963;DHT22;38827;53.024;6.596;2023-02-15T13:25:36;16.80;45.30
52963;DHT22;38827;53.024;6.596;2023-02-15T13:28:06;16.70;45.30
52963;DHT22;38827;53.024;6.596;2023-02-15T13:30:38;16.60;45.40
52963;DHT22;38827;53.024;6.596;2023-02-15T13:33:22;16.50;45.40
52963;DHT22;38827;53.024;6.596;2023-02-15T13:38:41;16.00;45.70
52963;DHT22;38827;53.024;6.596;2023-02-15T13:41:14;15.70;46.10
52963;DHT22;38827;53.024;6.596;2023-02-15T13:43:56;15.50;46.50
52963;DHT22;38827;53.024;6.596;2023-02-15T13:49:20;14.90;47.50
52963;DHT22;38827;53.024;6.596;2023-02-15T14:02:38;14.40;48.40
52963;DHT22;38827;53.024;6.596;2023-02-15T14:11:01;14.20;48.80
52963;DHT22;38827;53.024;6.596;2023-02-15T14:14:09;14.20;48.80
52963;DHT22;38827;53.024;6.596;2023-02-15T14:16:45;14.10;48.90
52963;DHT22;38827;53.024;6.596;2023-02-15T14:19:27;14.00;49.00
52963;DHT22;38827;53.024;6.596;2023-02-15T14:22:00;14.00;49.40
52963;DHT22;38827;53.024;6.596;2023-02-15T14:24:37;13.90;49.40
52963;DHT22;38827;53.024;6.596;2023-02-15T14:30:00;13.80;49.80
52963;DHT22;38827;53.024;6.596;2023-02-15T14:32:35;13.60;50.00
52963;DHT22;38827;53.024;6.596;2023-02-15T14:35:18;13.50;50.30
52963;DHT22;38827;53.024;6.596;2023-02-15T14:46:07;13.10;51.50
52963;DHT22;38827;53.024;6.596;2023-02-15T16:58:06;9.60;61.90
52963;DHT22;38827;53.024;6.596;2023-02-15T17:01:06;9.50;61.80
52963;DHT22;38827;53.024;6.596;2023-02-15T17:03:50;9.50;62.00
52963;DHT22;38827;53.024;6.596;2023-02-15T17:06:42;9.50;62.60
52963;DHT22;38827;53.024;6.596;2023-02-15T17:10:14;9.40;62.40
52963;DHT22;38827;53.024;6.596;2023-02-15T17:13:18;9.40;62.40
52963;DHT22;38827;53.024;6.596;2023-02-15T17:25:48;9.20;62.50
52963;DHT22;38827;53.024;6.596;2023-02-15T17:28:58;9.20;62.50
52963;DHT22;38827;53.024;6.596;2023-02-15T17:31:40;9.10;62.80
52963;DHT22;38827;53.024;6.596;2023-02-15T17:37:45;9.10;62.90
52963;DHT22;38827;53.024;6.596;2023-02-15T17:40:26;9.00;62.90
52963;DHT22;38827;53.024;6.596;2023-02-15T17:46:11;9.00;63.40
52963;DHT22;38827;53.024;6.596;2023-02-15T17:48:54;8.90;63.20
52963;DHT22;38827;53.024;6.596;2023-02-15T17:51:51;8.90;63.50
52963;DHT22;38827;53.024;6.596;2023-02-15T17:54:19;8.90;63.60
52963;DHT22;38827;53.024;6.596;2023-02-15T17:57:12;8.90;63.70
52963;DHT22;38827;53.024;6.596;2023-02-15T17:59:37;8.90;64.00
52963;DHT22;38827;53.024;6.596;2023-02-15T18:02:21;8.80;64.20
52963;DHT22;38827;53.024;6.596;2023-02-15T18:05:12;8.80;64.30
52963;DHT22;38827;53.024;6.596;2023-02-15T18:07:57;8.80;64.60
52963;DHT22;38827;53.024;6.596;2023-02-15T18:10:41;8.80;64.60
52963;DHT22;38827;53.024;6.596;2023-02-15T18:13:25;8.80;64.70
52963;DHT22;38827;53.024;6.596;2023-02-15T18:15:51;8.70;64.80
52963;DHT22;38827;53.024;6.596;2023-02-15T18:18:17;8.70;65.20
52963;DHT22;38827;53.024;6.596;2023-02-15T18:20:43;8.70;65.30
52963;DHT22;38827;53.024;6.596;2023-02-15T18:23:13;8.60;65.40
52963;DHT22;38827;53.024;6.596;2023-02-15T18:25:39;8.60;65.80
52963;DHT22;38827;53.024;6.596;2023-02-15T18:28:05;8.60;65.80
52963;DHT22;38827;53.024;6.596;2023-02-15T18:30:32;8.50;65.90
52963;DHT22;38827;53.024;6.596;2023-02-15T18:32:58;8.50;66.10
52963;DHT22;38827;53.024;6.596;2023-02-15T18:35:27;8.50;66.30
52963;DHT22;38827;53.024;6.596;2023-02-15T18:37:54;8.40;66.40
52963;DHT22;38827;53.024;6.596;2023-02-15T18:40:29;8.40;66.50
52963;DHT22;38827;53.024;6.596;2023-02-15T18:42:55;8.40;66.70
52963;DHT22;38827;53.024;6.596;2023-02-15T18:45:29;8.30;66.70
52963;DHT22;38827;53.024;6.596;2023-02-15T18:48:33;8.30;67.00
52963;DHT22;38827;53.024;6.596;2023-02-15T18:50:59;8.30;67.10
52963;DHT22;38827;53.024;6.596;2023-02-15T18:53:25;8.20;67.10
52963;DHT22;38827;53.024;6.596;2023-02-15T18:55:53;8.20;67.20
52963;DHT22;38827;53.024;6.596;2023-02-15T18:58:20;8.20;67.40
52963;DHT22;38827;53.024;6.596;2023-02-15T19:01:21;8.20;67.50
52963;DHT22;38827;53.024;6.596;2023-02-15T19:03:48;8.20;67.50
52963;DHT22;38827;53.024;6.596;2023-02-15T19:06:21;8.10;67.50
52963;DHT22;38827;53.024;6.596;2023-02-15T19:08:58;8.10;67.80
52963;DHT22;38827;53.024;6.596;2023-02-15T19:11:33;8.10;67.90
52963;DHT22;38827;53.024;6.596;2023-02-15T19:14:29;8.10;68.10
52963;DHT22;38827;53.024;6.596;2023-02-15T19:17:01;8.10;68.10
52963;DHT22;38827;53.024;6.596;2023-02-15T19:19:46;8.10;68.10
52963;DHT22;38827;53.024;6.596;2023-02-15T19:22:37;8.00;68.20
52963;DHT22;38827;53.024;6.596;2023-02-15T19:33:09;8.00;68.60
52963;DHT22;38827;53.024;6.596;2023-02-15T19:42:56;7.90;68.40
52963;DHT22;38827;53.024;6.596;2023-02-15T19:45:29;7.90;68.40
52963;DHT22;38827;53.024;6.596;2023-02-15T19:48:09;7.90;68.50
52963;DHT22;38827;53.024;6.596;2023-02-15T19:50:35;7.90;68.50
52963;DHT22;38827;53.024;6.596;2023-02-15T19:53:02;7.90;68.60
52963;DHT22;38827;53.024;6.596;2023-02-15T19:55:30;7.90;68.70
52963;DHT22;38827;53.024;6.596;2023-02-15T20:02:11;7.90;68.90
52963;DHT22;38827;53.024;6.596;2023-02-15T20:04:50;7.80;69.30
52963;DHT22;38827;53.024;6.596;2023-02-15T20:07:53;7.80;69.10
52963;DHT22;38827;53.024;6.596;2023-02-15T20:13:21;7.80;69.00
52963;DHT22;38827;53.024;6.596;2023-02-15T20:26:36;7.70;69.00
52963;DHT22;38827;53.024;6.596;2023-02-15T20:29:18;7.70;69.30
52963;DHT22;38827;53.024;6.596;2023-02-15T20:32:10;7.70;69.40
52963;DHT22;38827;53.024;6.596;2023-02-15T20:34:55;7.70;69.40
52963;DHT22;38827;53.024;6.596;2023-02-15T20:37:36;7.70;69.50
52963;DHT22;38827;53.024;6.596;2023-02-15T20:40:24;7.60;69.50
52963;DHT22;38827;53.024;6.596;2023-02-15T20:43:33;7.60;69.80
52963;DHT22;38827;53.024;6.596;2023-02-15T20:45:59;7.60;69.60
52963;DHT22;38827;53.024;6.596;2023-02-15T20:48:49;7.60;69.70
52963;DHT22;38827;53.024;6.596;2023-02-15T20:51:20;7.60;69.80
52963;DHT22;38827;53.024;6.596;2023-02-15T20:53:48;7.60;69.90
52963;DHT22;38827;53.024;6.596;2023-02-15T20:56:40;7.60;69.80
52963;DHT22;38827;53.024;6.596;2023-02-15T21:02:23;7.60;70.00
52963;DHT22;38827;53.024;6.596;2023-02-15T21:05:26;7.60;69.90
52963;DHT22;38827;53.024;6.596;2023-02-15T21:07:55;7.60;70.10
52963;DHT22;38827;53.024;6.596;2023-02-15T21:13:49;7.60;70.00
52963;DHT22;38827;53.024;6.596;2023-02-15T21:16:32;7.60;70.00
52963;DHT22;38827;53.024;6.596;2023-02-15T21:19:35;7.60;69.90
52963;DHT22;38827;53.024;6.596;2023-02-15T21:22:02;7.60;70.40
52963;DHT22;38827;53.024;6.596;2023-02-15T21:24:27;7.60;69.90
52963;DHT22;38827;53.024;6.596;2023-02-15T21:26:54;7.50;70.50
52963;DHT22;38827;53.024;6.596;2023-02-15T21:29:25;7.50;69.80
52963;DHT22;38827;53.024;6.596;2023-02-15T21:31:52;7.50;69.90
52963;DHT22;38827;53.024;6.596;2023-02-15T21:34:18;7.50;70.00
52963;DHT22;38827;53.024;6.596;2023-02-15T21:36:45;7.40;70.00
52963;DHT22;38827;53.024;6.596;2023-02-15T21:39:18;7.40;70.00
52963;DHT22;38827;53.024;6.596;2023-02-15T21:41:58;7.40;70.10
52963;DHT22;38827;53.024;6.596;2023-02-15T21:45:41;7.40;70.40
52963;DHT22;38827;53.024;6.596;2023-02-15T21:48:25;7.30;70.70
52963;DHT22;38827;53.024;6.596;2023-02-15T21:50:51;7.30;70.60
52963;DHT22;38827;53.024;6.596;2023-02-15T21:53:39;7.30;70.60
52963;DHT22;38827;53.024;6.596;2023-02-15T21:56:17;7.30;70.80
52963;DHT22;38827;53.024;6.596;2023-02-15T21:58:43;7.20;70.90
52963;DHT22;38827;53.024;6.596;2023-02-15T22:01:19;7.20;70.90
52963;DHT22;38827;53.024;6.596;2023-02-15T22:03:45;7.20;71.10
52963;DHT22;38827;53.024;6.596;2023-02-15T22:06:12;7.20;71.00
52963;DHT22;38827;53.024;6.596;2023-02-15T22:08:39;7.20;71.20
52963;DHT22;38827;53.024;6.596;2023-02-15T22:11:18;7.10;71.30
52963;DHT22;38827;53.024;6.596;2023-02-15T22:13:46;7.10;71.40
52963;DHT22;38827;53.024;6.596;2023-02-15T22:16:18;7.10;71.50
52963;DHT22;38827;53.024;6.596;2023-02-15T22:18:44;7.10;71.50
52963;DHT22;38827;53.024;6.596;2023-02-15T22:21:11;7.10;71.40
52963;DHT22;38827;53.024;6.596;2023-02-15T22:23:37;7.10;71.20
52963;DHT22;38827;53.024;6.596;2023-02-15T22:26:23;7.10;71.40
52963;DHT22;38827;53.024;6.596;2023-02-15T22:28:49;7.10;71.60
52963;DHT22;38827;53.024;6.596;2023-02-15T22:31:19;7.00;71.30
52963;DHT22;38827;53.024;6.596;2023-02-15T22:33:46;7.10;71.40
52963;DHT22;38827;53.024;6.596;2023-02-15T22:38:49;7.00;71.30
52963;DHT22;38827;53.024;6.596;2023-02-15T22:41:15;7.00;71.20
52963;DHT22;38827;53.024;6.596;2023-02-15T22:43:43;7.00;71.30
52963;DHT22;38827;53.024;6.596;2023-02-15T22:46:15;7.00;71.40
52963;DHT22;38827;53.024;6.596;2023-02-15T22:48:44;7.00;71.30
52963;DHT22;38827;53.024;6.596;2023-02-15T22:51:14;7.00;71.30
52963;DHT22;38827;53.024;6.596;2023-02-15T22:53:40;6.90;71.40
52963;DHT22;38827;53.024;6.596;2023-02-15T22:56:10;6.90;71.30
52963;DHT22;38827;53.024;6.596;2023-02-15T22:58:39;6.90;71.40
52963;DHT22;38827;53.024;6.596;2023-02-15T23:01:04;6.90;71.30
52963;DHT22;38827;53.024;6.596;2023-02-15T23:03:31;6.90;71.40
52963;DHT22;38827;53.024;6.596;2023-02-15T23:05:57;6.80;71.50
52963;DHT22;38827;53.024;6.596;2023-02-15T23:08:23;6.80;71.80
52963;DHT22;38827;53.024;6.596;2023-02-15T23:10:55;6.80;71.40
52963;DHT22;38827;53.024;6.596;2023-02-15T23:13:25;6.80;71.30
52963;DHT22;38827;53.024;6.596;2023-02-15T23:15:57;6.70;71.40
52963;DHT22;38827;53.024;6.596;2023-02-15T23:18:30;6.70;71.40
52963;DHT22;38827;53.024;6.596;2023-02-15T23:23:41;6.70;71.50
52963;DHT22;38827;53.024;6.596;2023-02-15T23:26:22;6.70;71.40
52963;DHT22;38827;53.024;6.596;2023-02-15T23:28:49;6.70;71.30
52963;DHT22;38827;53.024;6.596;2023-02-15T23:31:21;6.70;71.30
52963;DHT22;38827;53.024;6.596;2023-02-15T23:33:48;6.70;71.50
52963;DHT22;38827;53.024;6.596;2023-02-15T23:36:35;6.60;71.60
52963;DHT22;38827;53.024;6.596;2023-02-15T23:39:27;6.60;71.60
52963;DHT22;38827;53.024;6.596;2023-02-15T23:42:24;6.60;71.60
52963;DHT22;38827;53.024;6.596;2023-02-15T23:44:51;6.60;71.50
52963;DHT22;38827;53.024;6.596;2023-02-15T23:50:27;6.60;71.60
52963;DHT22;38827;53.024;6.596;2023-02-15T23:52:54;6.50;71.70
52963;DHT22;38827;53.024;6.596;2023-02-15T23:55:20;6.50;71.70
52963;DHT22;38827;53.024;6.596;2023-02-15T23:57:47;6.50;71.70
